Time;durP1;ratioP1;P1;durP2;ratioP2;P2;SDS_P1;SDS_P2;PMS_P1;PMS_P2;Temp;Humidity;BMP_temperature;BMP_pressure;BME280_temperature;BME280_humidity;BME280_pressure;Samples;Min_cycle;Max_cycle;Signal;HPM_P1;HPM_P2
2023/03/26 00:01:45;;;;;;;;;;;;;;;7.53;100.00;100674.41;5041317;28;20294;-77
2023/03/26 00:04:11;;;;;;;;;;;;;;;7.55;100.00;100689.34;5037993;28;20275;-77
2023/03/26 00:06:38;;;;;;;;;;;;;;;7.52;100.00;100683.38;5048691;28;19931;-76
2023/03/26 00:09:04;;;;;;;;;;;;;;;7.54;100.00;100686.78;5052610;28;20406;-77
2023/03/26 00:11:30;;;;;;;;;;;;;;;7.57;100.00;100678.53;5036113;28;20374;-77
2023/03/26 00:13:56;;;;;;;;;;;;;;;7.54;100.00;100676.94;5034643;28;19990;-76
2023/03/26 00:16:22;;;;;;;;;;;;;;;7.57;100.00;100683.88;5052808;28;20009;-77
2023/03/26 00:18:47;;;;;;;;;;;;;;;7.58;100.00;100680.25;5052051;28;20015;-77
2023/03/26 00:21:13;;;;;;;;;;;;;;;7.58;100.00;100678.47;5059233;28;20108;-77
2023/03/26 00:23:40;;;;;;;;;;;;;;;7.60;100.00;100676.53;5050543;28;19932;-78
2023/03/26 00:26:09;;;;;;;;;;;;;;;7.57;100.00;100673.19;5041231;28;19920;-77
2023/03/26 00:28:35;;;;;;;;;;;;;;;7.61;100.00;100675.59;5038483;28;20402;-77
2023/03/26 00:31:01;;;;;;;;;;;;;;;7.53;100.00;100669.06;5056107;28;19920;-77
2023/03/26 00:33:26;;;;;;;;;;;;;;;7.58;100.00;100670.44;5048870;28;19925;-78
2023/03/26 00:35:53;;;;;;;;;;;;;;;7.62;100.00;100669.28;5039525;28;19924;-77
2023/03/26 00:38:19;;;;;;;;;;;;;;;7.60;100.00;100664.97;5045915;28;19929;-77
2023/03/26 00:40:46;;;;;;;;;;;;;;;7.57;100.00;100665.19;5045640;28;19921;-77
2023/03/26 00:43:17;;;;;;;;;;;;;;;7.59;100.00;100657.94;5040391;28;20294;-77
2023/03/26 00:45:50;;;;;;;;;;;;;;;7.58;100.00;100658.88;5037597;28;19923;-77
2023/03/26 00:48:15;;;;;;;;;;;;;;;7.54;100.00;100660.06;5055581;28;20262;-77
2023/03/26 00:50:41;;;;;;;;;;;;;;;7.51;100.00;100647.78;5035602;28;20485;-77
2023/03/26 00:53:07;;;;;;;;;;;;;;;7.53;100.00;100648.53;5048386;28;19924;-77
2023/03/26 00:55:33;;;;;;;;;;;;;;;7.56;100.00;100642.97;5052198;28;19920;-77
2023/03/26 00:57:58;;;;;;;;;;;;;;;7.63;100.00;100643.41;5052025;28;19916;-78
2023/03/26 01:00:27;;;;;;;;;;;;;;;7.61;100.00;100639.97;5050674;28;19916;-77
2023/03/26 01:02:54;;;;;;;;;;;;;;;7.60;100.00;100635.59;5052655;28;19931;-77
2023/03/26 01:05:34;;;;;;;;;;;;;;;7.62;100.00;100631.00;5050963;28;19931;-77
2023/03/26 01:08:04;;;;;;;;;;;;;;;7.52;100.00;100625.44;5051354;28;19942;-77
2023/03/26 01:10:37;;;;;;;;;;;;;;;7.46;100.00;100620.50;5044849;28;19924;-77
2023/03/26 01:13:02;;;;;;;;;;;;;;;7.33;100.00;100612.47;5045332;28;19917;-77
2023/03/26 01:15:28;;;;;;;;;;;;;;;7.42;100.00;100617.19;5049950;28;19920;-77
2023/03/26 01:17:56;;;;;;;;;;;;;;;7.28;100.00;100612.78;5056247;28;20019;-77
2023/03/26 01:20:25;;;;;;;;;;;;;;;7.22;100.00;100607.84;5050893;28;19962;-76
2023/03/26 01:22:52;;;;;;;;;;;;;;;7.12;100.00;100610.28;5050159;28;20347;-78
2023/03/26 01:25:17;;;;;;;;;;;;;;;7.08;100.00;100606.13;5048288;28;19924;-77
2023/03/26 01:27:49;;;;;;;;;;;;;;;7.12;100.00;100596.09;5049838;28;19932;-78
2023/03/26 01:30:16;;;;;;;;;;;;;;;7.17;100.00;100601.97;5049291;28;19921;-77
2023/03/26 01:32:46;;;;;;;;;;;;;;;7.05;100.00;100592.97;5032511;28;19932;-77
2023/03/26 01:35:16;;;;;;;;;;;;;;;7.01;100.00;100589.66;5051371;28;19921;-77
2023/03/26 01:37:51;;;;;;;;;;;;;;;7.09;100.00;100583.81;5054573;28;19947;-76
2023/03/26 01:40:26;;;;;;;;;;;;;;;7.02;100.00;100585.16;5048700;28;20011;-76
2023/03/26 01:42:59;;;;;;;;;;;;;;;6.99;100.00;100582.72;5036271;28;19943;-76
2023/03/26 01:45:25;;;;;;;;;;;;;;;7.03;100.00;100568.19;5050696;28;20421;-77
2023/03/26 01:47:50;;;;;;;;;;;;;;;7.08;100.00;100568.75;5055525;28;19931;-77
2023/03/26 01:50:15;;;;;;;;;;;;;;;6.99;100.00;100564.03;5040668;28;19920;-77
2023/03/26 01:52:41;;;;;;;;;;;;;;;6.85;100.00;100560.47;5055032;28;19927;-76
2023/03/26 01:55:10;;;;;;;;;;;;;;;6.81;100.00;100542.09;5041045;28;20418;-77
2023/03/26 01:57:38;;;;;;;;;;;;;;;6.74;100.00;100557.69;5050444;28;20381;-77
2023/03/26 02:00:10;;;;;;;;;;;;;;;6.71;100.00;100558.72;5038124;28;19921;-77
2023/03/26 02:02:37;;;;;;;;;;;;;;;6.73;100.00;100555.97;5048742;28;20009;-76
2023/03/26 02:05:02;;;;;;;;;;;;;;;6.70;100.00;100554.34;5056992;28;19951;-77
2023/03/26 02:07:27;;;;;;;;;;;;;;;6.79;100.00;100554.69;5054343;28;20015;-77
2023/03/26 02:09:54;;;;;;;;;;;;;;;6.82;100.00;100554.50;5047652;28;19959;-76
2023/03/26 02:12:19;;;;;;;;;;;;;;;6.76;100.00;100550.41;5049670;28;20422;-77
2023/03/26 02:14:45;;;;;;;;;;;;;;;6.76;100.00;100545.06;5051579;28;20239;-76
2023/03/26 02:17:10;;;;;;;;;;;;;;;6.56;100.00;100546.41;5036120;28;19924;-76
2023/03/26 02:19:36;;;;;;;;;;;;;;;6.74;100.00;100541.66;5050649;28;19921;-76
2023/03/26 02:22:01;;;;;;;;;;;;;;;6.77;100.00;100536.09;5051860;28;19924;-77
2023/03/26 02:24:26;;;;;;;;;;;;;;;6.73;100.00;100531.94;5055072;28;19931;-77
2023/03/26 02:26:51;;;;;;;;;;;;;;;6.75;100.00;100535.38;5055608;28;19920;-76
2023/03/26 02:29:19;;;;;;;;;;;;;;;6.77;100.00;100528.09;5069448;28;20042;-76
2023/03/26 02:31:47;;;;;;;;;;;;;;;6.84;100.00;100531.22;5051275;28;19921;-78
2023/03/26 02:34:13;;;;;;;;;;;;;;;6.76;100.00;100521.03;5033734;28;19947;-77
2023/03/26 02:36:41;;;;;;;;;;;;;;;6.93;100.00;100519.06;5051529;28;19927;-77
2023/03/26 02:39:06;;;;;;;;;;;;;;;6.80;100.00;100521.72;5035478;28;19920;-77
2023/03/26 02:41:32;;;;;;;;;;;;;;;6.80;100.00;100513.72;5062479;28;19967;-77
2023/03/26 02:43:57;;;;;;;;;;;;;;;6.80;100.00;100509.22;5053855;28;20008;-77
2023/03/26 02:46:22;;;;;;;;;;;;;;;6.80;100.00;100511.88;5034250;28;19920;-78
2023/03/26 02:48:48;;;;;;;;;;;;;;;6.77;100.00;100508.56;5026775;28;20219;-77
2023/03/26 02:51:17;;;;;;;;;;;;;;;6.72;100.00;100503.56;5032098;28;20243;-77
2023/03/26 02:53:42;;;;;;;;;;;;;;;6.64;100.00;100501.38;5033775;28;20339;-77
2023/03/26 02:56:07;;;;;;;;;;;;;;;6.59;100.00;100504.38;5048370;28;20055;-77
2023/03/26 02:58:33;;;;;;;;;;;;;;;6.56;100.00;100496.56;5029451;28;19927;-77
2023/03/26 03:00:58;;;;;;;;;;;;;;;6.60;100.00;100494.56;5052507;28;20181;-77
2023/03/26 03:03:24;;;;;;;;;;;;;;;6.50;100.00;100494.28;5050417;28;19921;-78
2023/03/26 03:05:50;;;;;;;;;;;;;;;6.49;100.00;100487.25;5037741;28;19967;-78
2023/03/26 03:08:17;;;;;;;;;;;;;;;6.55;100.00;100484.19;5032016;28;19947;-77
2023/03/26 03:10:42;;;;;;;;;;;;;;;6.44;100.00;100474.22;5036414;28;20164;-77
2023/03/26 03:13:07;;;;;;;;;;;;;;;6.42;100.00;100473.47;5035568;28;19974;-78
2023/03/26 03:15:33;;;;;;;;;;;;;;;6.45;100.00;100465.28;5036705;28;20379;-78
2023/03/26 03:17:59;;;;;;;;;;;;;;;6.47;100.00;100462.53;5037184;28;20386;-78
2023/03/26 03:20:24;;;;;;;;;;;;;;;6.48;100.00;100460.69;5052185;28;20003;-78
2023/03/26 03:22:49;;;;;;;;;;;;;;;6.55;100.00;100460.16;5050827;28;19920;-78
2023/03/26 03:25:16;;;;;;;;;;;;;;;6.59;100.00;100453.69;5052780;28;19916;-78
2023/03/26 03:27:41;;;;;;;;;;;;;;;6.58;100.00;100459.97;5049963;28;20232;-78
2023/03/26 03:30:07;;;;;;;;;;;;;;;6.58;100.00;100443.97;5050627;28;19990;-78
2023/03/26 03:32:32;;;;;;;;;;;;;;;6.59;100.00;100442.16;5052528;28;19943;-77
2023/03/26 03:34:58;;;;;;;;;;;;;;;6.60;100.00;100443.88;5048541;28;20269;-78
2023/03/26 03:37:23;;;;;;;;;;;;;;;6.52;100.00;100444.38;5050259;28;19963;-78
2023/03/26 03:39:48;;;;;;;;;;;;;;;6.63;100.00;100443.66;5050689;28;20047;-77
2023/03/26 03:42:13;;;;;;;;;;;;;;;6.66;100.00;100437.25;5049815;28;19921;-78
2023/03/26 03:44:39;;;;;;;;;;;;;;;6.68;100.00;100435.34;5033227;28;19920;-77
2023/03/26 03:47:05;;;;;;;;;;;;;;;6.77;100.00;100437.38;5035944;28;19943;-78
2023/03/26 03:49:31;;;;;;;;;;;;;;;6.86;100.00;100435.91;5051638;28;19928;-77
2023/03/26 03:51:56;;;;;;;;;;;;;;;6.77;100.00;100441.88;5039727;28;20351;-77
2023/03/26 03:54:21;;;;;;;;;;;;;;;6.71;100.00;100427.13;5036824;28;19920;-77
2023/03/26 03:56:47;;;;;;;;;;;;;;;6.67;100.00;100426.47;5049945;28;19921;-77
2023/03/26 03:59:12;;;;;;;;;;;;;;;6.60;100.00;100430.53;5033325;28;19921;-78
2023/03/26 04:01:37;;;;;;;;;;;;;;;6.59;100.00;100418.16;5052449;28;20067;-77
2023/03/26 04:04:03;;;;;;;;;;;;;;;6.55;100.00;100414.00;5053438;28;19932;-78
2023/03/26 04:06:29;;;;;;;;;;;;;;;6.64;100.00;100417.84;5052531;28;20378;-77
2023/03/26 04:08:54;;;;;;;;;;;;;;;6.58;100.00;100416.44;5036715;28;19935;-77
2023/03/26 04:11:19;;;;;;;;;;;;;;;6.64;100.00;100412.50;5057023;28;20366;-77
2023/03/26 04:13:45;;;;;;;;;;;;;;;6.57;100.00;100406.75;5037028;28;19921;-77
2023/03/26 04:16:10;;;;;;;;;;;;;;;6.49;100.00;100403.72;5046937;28;19959;-77
2023/03/26 04:18:36;;;;;;;;;;;;;;;6.48;100.00;100402.88;5054196;28;19920;-77
2023/03/26 04:21:01;;;;;;;;;;;;;;;6.57;100.00;100401.41;5052270;28;19955;-77
2023/03/26 04:23:28;;;;;;;;;;;;;;;6.56;100.00;100389.03;5033841;28;20011;-78
2023/03/26 04:25:53;;;;;;;;;;;;;;;6.51;100.00;100388.47;5051221;28;20019;-78
2023/03/26 04:28:27;;;;;;;;;;;;;;;6.53;100.00;100386.56;5049340;28;19961;-77
2023/03/26 04:30:53;;;;;;;;;;;;;;;6.44;100.00;100385.38;5051108;28;20421;-78
2023/03/26 04:33:19;;;;;;;;;;;;;;;6.48;100.00;100384.22;5033979;28;19925;-77
2023/03/26 04:35:45;;;;;;;;;;;;;;;6.40;100.00;100374.03;5052529;28;19925;-77
2023/03/26 04:38:10;;;;;;;;;;;;;;;6.43;100.00;100371.19;5048416;28;19927;-77
2023/03/26 04:40:35;;;;;;;;;;;;;;;6.36;100.00;100369.03;5042357;28;20255;-77
2023/03/26 04:43:01;;;;;;;;;;;;;;;6.42;100.00;100364.13;5033780;28;20015;-77
2023/03/26 04:45:29;;;;;;;;;;;;;;;6.46;100.00;100364.78;5047421;28;19924;-76
2023/03/26 04:47:54;;;;;;;;;;;;;;;6.52;100.00;100360.84;5052305;28;20255;-76
2023/03/26 04:50:19;;;;;;;;;;;;;;;6.45;100.00;100355.09;5051662;28;19927;-77
2023/03/26 04:52:45;;;;;;;;;;;;;;;6.44;100.00;100356.88;5048235;28;20005;-77
2023/03/26 04:55:24;;;;;;;;;;;;;;;6.45;100.00;100350.59;5049454;28;20070;-77
2023/03/26 04:57:50;;;;;;;;;;;;;;;6.43;100.00;100344.50;5044206;28;20640;-77
2023/03/26 05:00:17;;;;;;;;;;;;;;;6.45;100.00;100339.91;5048903;28;19921;-77
2023/03/26 05:02:42;;;;;;;;;;;;;;;6.49;100.00;100332.56;5050098;28;19925;-77
2023/03/26 05:05:08;;;;;;;;;;;;;;;6.52;100.00;100331.50;5050412;28;20508;-76
2023/03/26 05:07:33;;;;;;;;;;;;;;;6.51;100.00;100329.81;5049146;28;19943;-76
2023/03/26 05:10:02;;;;;;;;;;;;;;;6.51;100.00;100324.47;5049007;28;19967;-76
2023/03/26 05:12:27;;;;;;;;;;;;;;;6.54;100.00;100324.25;5054850;28;19926;-76
2023/03/26 05:14:52;;;;;;;;;;;;;;;6.60;100.00;100313.16;5046372;28;19920;-76
2023/03/26 05:17:20;;;;;;;;;;;;;;;6.62;100.00;100310.38;5052794;28;20409;-76
2023/03/26 05:19:45;;;;;;;;;;;;;;;6.63;100.00;100312.94;5045955;28;20007;-76
2023/03/26 05:22:11;;;;;;;;;;;;;;;6.60;100.00;100308.66;5048886;28;19926;-76
2023/03/26 05:24:36;;;;;;;;;;;;;;;6.63;100.00;100299.59;5047566;28;20385;-76
2023/03/26 05:27:01;;;;;;;;;;;;;;;6.60;100.00;100295.34;5032373;28;20400;-76
2023/03/26 05:29:26;;;;;;;;;;;;;;;6.60;100.00;100295.34;5045652;28;20401;-76
2023/03/26 05:31:52;;;;;;;;;;;;;;;6.58;100.00;100291.91;5030232;28;20378;-76
2023/03/26 05:34:18;;;;;;;;;;;;;;;6.51;100.00;100293.28;5050477;28;20335;-76
2023/03/26 05:36:43;;;;;;;;;;;;;;;6.55;100.00;100285.97;5047995;28;19921;-76
2023/03/26 05:39:08;;;;;;;;;;;;;;;6.58;100.00;100293.75;5031425;28;20413;-76
2023/03/26 05:41:34;;;;;;;;;;;;;;;6.59;100.00;100280.28;5047107;28;20426;-76
2023/03/26 05:43:59;;;;;;;;;;;;;;;6.61;100.00;100280.19;5047930;28;20335;-77
2023/03/26 05:46:26;;;;;;;;;;;;;;;6.60;100.00;100275.81;5048674;28;19924;-76
2023/03/26 05:48:51;;;;;;;;;;;;;;;6.59;100.00;100276.78;5048482;28;19925;-76
2023/03/26 05:51:16;;;;;;;;;;;;;;;6.59;100.00;100277.63;5046769;28;19928;-76
2023/03/26 05:53:42;;;;;;;;;;;;;;;6.62;100.00;100267.69;5045713;28;20240;-76
2023/03/26 05:56:07;;;;;;;;;;;;;;;6.62;100.00;100271.25;5050327;28;20019;-76
2023/03/26 05:58:33;;;;;;;;;;;;;;;6.59;100.00;100260.78;5042800;28;19963;-76
2023/03/26 06:01:01;;;;;;;;;;;;;;;6.45;100.00;100237.75;5045495;28;20038;-77
2023/03/26 06:03:26;;;;;;;;;;;;;;;6.56;100.00;100258.31;5047260;28;19928;-76
2023/03/26 06:05:51;;;;;;;;;;;;;;;6.61;100.00;100253.53;5049309;28;19928;-76
2023/03/26 06:08:18;;;;;;;;;;;;;;;6.62;100.00;100255.22;5048169;28;19929;-76
2023/03/26 06:10:43;;;;;;;;;;;;;;;6.64;100.00;100249.78;5048128;28;20369;-76
2023/03/26 06:13:09;;;;;;;;;;;;;;;6.66;100.00;100245.19;5045361;28;19943;-76
2023/03/26 06:15:34;;;;;;;;;;;;;;;6.68;100.00;100245.94;5050907;28;20218;-76
2023/03/26 06:17:59;;;;;;;;;;;;;;;6.70;100.00;100236.00;5033301;28;20324;-77
2023/03/26 06:20:24;;;;;;;;;;;;;;;6.64;100.00;100236.44;5042611;28;19921;-76
2023/03/26 06:22:50;;;;;;;;;;;;;;;6.60;100.00;100227.81;5049298;28;19964;-77
2023/03/26 06:25:15;;;;;;;;;;;;;;;6.64;100.00;100229.28;5046450;28;19930;-77
2023/03/26 06:27:40;;;;;;;;;;;;;;;6.59;100.00;100228.78;5029699;28;20458;-77
2023/03/26 06:30:06;;;;;;;;;;;;;;;6.55;100.00;100229.94;5029528;28;20350;-76
2023/03/26 06:32:31;;;;;;;;;;;;;;;6.60;100.00;100225.16;5048108;28;20289;-76
2023/03/26 06:34:56;;;;;;;;;;;;;;;6.66;100.00;100222.00;5055673;28;20391;-76
2023/03/26 06:37:21;;;;;;;;;;;;;;;6.69;100.00;100218.28;5055010;28;20037;-76
2023/03/26 06:39:46;;;;;;;;;;;;;;;6.64;100.00;100226.59;5048898;28;21052;-76
2023/03/26 06:42:12;;;;;;;;;;;;;;;6.66;100.00;100232.69;5036571;28;19920;-76
2023/03/26 06:44:37;;;;;;;;;;;;;;;6.67;100.00;100226.38;5051345;28;19924;-76
2023/03/26 06:47:02;;;;;;;;;;;;;;;6.69;100.00;100228.97;5046969;28;19924;-77
2023/03/26 06:49:27;;;;;;;;;;;;;;;6.76;100.00;100219.53;5052980;28;19924;-76
2023/03/26 06:51:52;;;;;;;;;;;;;;;6.70;100.00;100226.16;5055741;28;19920;-75
2023/03/26 06:54:18;;;;;;;;;;;;;;;6.81;100.00;100212.06;5046641;28;19948;-76
2023/03/26 06:56:43;;;;;;;;;;;;;;;6.87;100.00;100218.78;5034782;28;20022;-75
2023/03/26 06:59:09;;;;;;;;;;;;;;;6.85;100.00;100218.88;5049017;28;20018;-75
2023/03/26 07:01:34;;;;;;;;;;;;;;;6.89;100.00;100216.84;5030178;28;19920;-76
2023/03/26 07:03:59;;;;;;;;;;;;;;;6.93;100.00;100214.81;5045635;28;20051;-76
2023/03/26 07:06:25;;;;;;;;;;;;;;;6.98;100.00;100215.34;5027165;28;19930;-76
2023/03/26 07:08:50;;;;;;;;;;;;;;;6.97;100.00;100211.81;5045891;28;19943;-76
2023/03/26 07:11:18;;;;;;;;;;;;;;;7.03;100.00;100222.03;5030562;28;19966;-76
2023/03/26 07:13:44;;;;;;;;;;;;;;;6.97;100.00;100217.16;5045082;28;20290;-76
2023/03/26 07:16:09;;;;;;;;;;;;;;;7.02;100.00;100208.78;5048856;28;20620;-76
2023/03/26 07:18:38;;;;;;;;;;;;;;;7.02;100.00;100211.47;5044037;28;20367;-76
2023/03/26 07:21:03;;;;;;;;;;;;;;;7.00;100.00;100219.59;5047095;28;19970;-75
2023/03/26 07:23:29;;;;;;;;;;;;;;;6.99;100.00;100215.22;5031841;28;20054;-75
2023/03/26 07:25:54;;;;;;;;;;;;;;;6.74;100.00;100168.97;5044607;28;19921;-76
2023/03/26 07:28:24;;;;;;;;;;;;;;;7.09;100.00;100220.72;5047032;28;19934;-75
2023/03/26 07:30:49;;;;;;;;;;;;;;;7.12;100.00;100212.50;5029180;28;19951;-76
2023/03/26 07:33:14;;;;;;;;;;;;;;;7.05;100.00;100219.25;5048666;28;20422;-75
2023/03/26 07:35:45;;;;;;;;;;;;;;;7.12;100.00;100217.00;5048119;28;19921;-75
2023/03/26 07:38:10;;;;;;;;;;;;;;;7.12;100.00;100209.84;5030648;28;19955;-75
2023/03/26 07:40:57;;;;;;;;;;;;;;;7.11;100.00;100209.97;5050946;28;19920;-75
2023/03/26 07:43:34;;;;;;;;;;;;;;;7.11;100.00;100208.13;5031862;28;19955;-75
2023/03/26 07:46:00;;;;;;;;;;;;;;;7.11;100.00;100204.63;5048377;28;20015;-75
2023/03/26 07:48:26;;;;;;;;;;;;;;;7.13;100.00;100202.69;5045227;28;19931;-75
2023/03/26 07:50:55;;;;;;;;;;;;;;;7.11;100.00;100197.44;5046014;28;19919;-75
2023/03/26 07:53:20;;;;;;;;;;;;;;;7.05;100.00;100197.88;5048238;28;19955;-74
2023/03/26 07:55:51;;;;;;;;;;;;;;;7.09;100.00;100196.72;5034124;28;20178;-74
2023/03/26 07:58:24;;;;;;;;;;;;;;;7.14;100.00;100199.91;5049481;28;20403;-75
2023/03/26 08:00:56;;;;;;;;;;;;;;;7.14;100.00;100197.22;5047604;28;19921;-74
2023/03/26 08:03:21;;;;;;;;;;;;;;;7.15;100.00;100192.75;5052488;28;19924;-74
2023/03/26 08:05:49;;;;;;;;;;;;;;;7.16;100.00;100191.75;5048599;28;19950;-74
2023/03/26 08:08:23;;;;;;;;;;;;;;;7.20;100.00;100196.78;5050838;28;19940;-74
2023/03/26 08:10:54;;;;;;;;;;;;;;;7.12;100.00;100192.97;5051586;28;19924;-74
2023/03/26 08:13:20;;;;;;;;;;;;;;;7.16;100.00;100189.09;5047804;28;19959;-74
2023/03/26 08:15:53;;;;;;;;;;;;;;;7.17;100.00;100194.34;5047967;28;20047;-74
2023/03/26 08:18:31;;;;;;;;;;;;;;;7.10;100.00;100194.91;5045246;28;20635;-73
2023/03/26 08:21:06;;;;;;;;;;;;;;;7.15;100.00;100187.41;5047534;28;19920;-74
2023/03/26 08:23:38;;;;;;;;;;;;;;;7.11;100.00;100192.09;5044462;28;19959;-74
2023/03/26 08:26:09;;;;;;;;;;;;;;;7.13;100.00;100190.19;5045038;28;19920;-74
2023/03/26 08:28:37;;;;;;;;;;;;;;;7.23;100.00;100189.50;5053914;28;19955;-74
2023/03/26 08:31:03;;;;;;;;;;;;;;;7.20;100.00;100187.91;5050675;28;19927;-74
2023/03/26 08:33:28;;;;;;;;;;;;;;;7.11;100.00;100181.44;5050373;28;20348;-74
2023/03/26 08:35:53;;;;;;;;;;;;;;;7.19;100.00;100180.84;5039946;28;19932;-74
2023/03/26 08:38:19;;;;;;;;;;;;;;;7.14;100.00;100188.38;5037884;28;19920;-74
2023/03/26 08:40:50;;;;;;;;;;;;;;;7.02;100.00;100180.28;5046855;28;19932;-74
2023/03/26 08:43:34;;;;;;;;;;;;;;;7.07;100.00;100176.44;5042687;28;19920;-73
2023/03/26 08:46:06;;;;;;;;;;;;;;;7.14;100.00;100180.38;5048797;28;20042;-73
2023/03/26 08:48:46;;;;;;;;;;;;;;;7.15;100.00;100177.56;5045548;28;20235;-74
2023/03/26 08:51:30;;;;;;;;;;;;;;;7.22;100.00;100174.44;5052107;28;20400;-74
2023/03/26 08:53:55;;;;;;;;;;;;;;;7.34;100.00;100177.06;5048357;28;19921;-74
2023/03/26 08:56:25;;;;;;;;;;;;;;;7.41;100.00;100174.78;5051364;28;19933;-74
2023/03/26 08:58:57;;;;;;;;;;;;;;;7.49;100.00;100172.38;5044906;28;19920;-74
2023/03/26 09:01:41;;;;;;;;;;;;;;;7.48;100.00;100176.03;5048506;28;20298;-74
2023/03/26 09:04:25;;;;;;;;;;;;;;;7.59;100.00;100164.53;5046919;28;19921;-74
2023/03/26 09:06:53;;;;;;;;;;;;;;;7.63;100.00;100165.13;5051929;28;20433;-74
2023/03/26 09:09:18;;;;;;;;;;;;;;;7.78;100.00;100173.78;5045159;28;19946;-74
2023/03/26 09:11:54;;;;;;;;;;;;;;;7.78;100.00;100171.97;5048219;28;20398;-74
2023/03/26 09:14:29;;;;;;;;;;;;;;;7.89;100.00;100167.63;5051074;28;19924;-74
2023/03/26 09:17:13;;;;;;;;;;;;;;;7.94;100.00;100158.28;5055434;28;20484;-74
2023/03/26 09:19:39;;;;;;;;;;;;;;;7.99;100.00;100157.91;5044227;28;19989;-75
2023/03/26 09:22:12;;;;;;;;;;;;;;;8.16;100.00;100158.41;5048259;28;19920;-74
2023/03/26 09:24:45;;;;;;;;;;;;;;;8.17;100.00;100150.28;5052013;28;19920;-74
2023/03/26 09:27:34;;;;;;;;;;;;;;;8.26;100.00;100162.06;5048737;28;19958;-74
2023/03/26 09:30:17;;;;;;;;;;;;;;;8.33;100.00;100165.97;5031077;28;19933;-74
2023/03/26 09:32:45;;;;;;;;;;;;;;;8.42;100.00;100156.38;5047557;28;19924;-74
2023/03/26 09:35:25;;;;;;;;;;;;;;;8.45;100.00;100160.59;5050931;28;19963;-74
2023/03/26 09:37:57;;;;;;;;;;;;;;;8.39;100.00;100154.75;5050983;28;19921;-74
2023/03/26 09:40:43;;;;;;;;;;;;;;;8.44;100.00;100151.75;5044671;28;20038;-74
2023/03/26 09:43:14;;;;;;;;;;;;;;;8.48;100.00;100161.22;5046341;28;20515;-74
2023/03/26 09:45:45;;;;;;;;;;;;;;;8.61;100.00;100160.25;5043089;28;19924;-74
2023/03/26 09:48:30;;;;;;;;;;;;;;;8.54;100.00;100154.56;5044870;28;19924;-74
2023/03/26 09:50:59;;;;;;;;;;;;;;;8.44;100.00;100157.09;5045423;28;19924;-74
2023/03/26 09:53:43;;;;;;;;;;;;;;;8.45;100.00;100157.94;5046998;28;20385;-74
2023/03/26 09:56:27;;;;;;;;;;;;;;;8.61;100.00;100155.75;5038468;28;19928;-74
2023/03/26 09:58:55;;;;;;;;;;;;;;;8.73;100.00;100153.94;5044677;28;19955;-74
2023/03/26 10:01:32;;;;;;;;;;;;;;;8.80;100.00;100155.09;5037910;28;19920;-74
2023/03/26 10:04:01;;;;;;;;;;;;;;;8.76;100.00;100152.81;5041260;28;20704;-74
2023/03/26 10:06:26;;;;;;;;;;;;;;;8.85;100.00;100144.88;5038734;28;20090;-74
2023/03/26 10:08:51;;;;;;;;;;;;;;;8.89;100.00;100150.81;5051946;28;20468;-74
2023/03/26 10:11:17;;;;;;;;;;;;;;;8.95;100.00;100153.00;5050592;28;19920;-74
2023/03/26 10:13:58;;;;;;;;;;;;;;;8.98;100.00;100155.44;5048917;28;19924;-74
2023/03/26 10:16:25;;;;;;;;;;;;;;;8.93;100.00;100156.81;5051468;28;20313;-74
2023/03/26 10:19:09;;;;;;;;;;;;;;;8.70;100.00;100141.63;5030106;28;20116;-74
2023/03/26 10:21:53;;;;;;;;;;;;;;;8.78;100.00;100146.34;5049835;28;19920;-74
2023/03/26 10:24:44;;;;;;;;;;;;;;;8.69;100.00;100150.63;5047535;28;19920;-74
2023/03/26 10:27:20;;;;;;;;;;;;;;;8.74;100.00;100146.72;5018831;28;19920;-74
2023/03/26 10:29:45;;;;;;;;;;;;;;;8.68;100.00;100148.94;5047412;28;19924;-74
2023/03/26 10:32:22;;;;;;;;;;;;;;;8.66;100.00;100153.56;5043014;28;19921;-74
2023/03/26 10:35:02;;;;;;;;;;;;;;;8.76;100.00;100156.34;5029204;28;19994;-75
2023/03/26 10:37:40;;;;;;;;;;;;;;;8.85;100.00;100165.47;5045769;28;20286;-74
2023/03/26 10:40:15;;;;;;;;;;;;;;;8.80;100.00;100157.78;5046946;28;19920;-74
2023/03/26 10:43:03;;;;;;;;;;;;;;;8.90;100.00;100162.41;5049038;28;19951;-74
2023/03/26 10:45:28;;;;;;;;;;;;;;;9.03;100.00;100157.72;5033001;28;19924;-74
2023/03/26 10:47:53;;;;;;;;;;;;;;;8.89;100.00;100168.72;5050946;28;20534;-74
2023/03/26 10:50:19;;;;;;;;;;;;;;;8.84;100.00;100159.25;5045120;28;19964;-74
2023/03/26 10:52:51;;;;;;;;;;;;;;;8.90;100.00;100165.91;5048009;28;19924;-74
2023/03/26 10:55:21;;;;;;;;;;;;;;;8.94;100.00;100162.00;5044802;28;19920;-74
2023/03/26 10:57:49;;;;;;;;;;;;;;;9.05;100.00;100160.28;5041563;28;19925;-74
2023/03/26 11:00:22;;;;;;;;;;;;;;;9.12;100.00;100169.53;5022792;28;19925;-74
2023/03/26 11:03:05;;;;;;;;;;;;;;;9.12;100.00;100165.00;5045014;28;19921;-75
2023/03/26 11:05:49;;;;;;;;;;;;;;;9.15;100.00;100172.78;5048282;28;19924;-74
2023/03/26 11:08:20;;;;;;;;;;;;;;;9.17;100.00;100169.97;5047106;28;19925;-74
2023/03/26 11:10:57;;;;;;;;;;;;;;;9.21;100.00;100170.59;5046546;28;19931;-74
2023/03/26 11:13:41;;;;;;;;;;;;;;;9.20;100.00;100167.06;5045279;28;20015;-75
2023/03/26 11:16:21;;;;;;;;;;;;;;;9.23;100.00;100169.47;5042606;28;19943;-75
2023/03/26 11:18:49;;;;;;;;;;;;;;;9.11;100.00;100162.47;5047496;28;19920;-74
2023/03/26 11:21:35;;;;;;;;;;;;;;;9.22;100.00;100175.81;5037151;28;19920;-74
2023/03/26 11:24:36;;;;;;;;;;;;;;;9.24;100.00;100181.91;5047501;28;19993;-74
2023/03/26 11:27:04;;;;;;;;;;;;;;;9.24;100.00;100181.91;4989219;28;19963;-74
2023/03/26 11:29:35;;;;;;;;;;;;;;;9.29;100.00;100177.00;5034218;28;20065;-75
2023/03/26 11:32:00;;;;;;;;;;;;;;;9.37;100.00;100176.38;5053247;28;20122;-74
2023/03/26 11:34:42;;;;;;;;;;;;;;;9.44;100.00;100188.28;5047298;28;19950;-75
2023/03/26 11:37:12;;;;;;;;;;;;;;;9.37;100.00;100159.47;5043446;28;19924;-75
2023/03/26 11:39:43;;;;;;;;;;;;;;;9.49;100.00;100185.19;5048457;28;19932;-74
2023/03/26 11:42:09;;;;;;;;;;;;;;;9.40;100.00;100181.47;5044733;28;20710;-74
2023/03/26 11:44:37;;;;;;;;;;;;;;;9.51;100.00;100188.59;5044797;28;20693;-75
2023/03/26 11:47:03;;;;;;;;;;;;;;;9.35;100.00;100186.34;5050723;28;19920;-75
2023/03/26 11:49:29;;;;;;;;;;;;;;;9.52;100.00;100189.47;5053300;28;20528;-74
2023/03/26 11:51:54;;;;;;;;;;;;;;;9.57;100.00;100184.56;5041258;28;20015;-74
2023/03/26 11:54:21;;;;;;;;;;;;;;;9.52;100.00;100190.31;5050559;28;19916;-74
2023/03/26 11:57:12;;;;;;;;;;;;;;;9.72;100.00;100196.69;5044440;28;20017;-74
2023/03/26 11:59:40;;;;;;;;;;;;;;;9.44;100.00;100193.63;5046033;28;19917;-74
2023/03/26 12:02:08;;;;;;;;;;;;;;;9.59;100.00;100196.88;5047168;28;19920;-74
2023/03/26 12:04:37;;;;;;;;;;;;;;;9.69;100.00;100196.06;5051598;28;20302;-74
2023/03/26 12:07:21;;;;;;;;;;;;;;;9.83;100.00;100194.91;5053001;28;19924;-75
2023/03/26 12:09:56;;;;;;;;;;;;;;;9.89;100.00;100195.25;5051399;28;20091;-75
2023/03/26 12:12:24;;;;;;;;;;;;;;;9.89;100.00;100195.25;5044631;28;20416;-74
2023/03/26 12:14:50;;;;;;;;;;;;;;;9.84;100.00;100165.28;5046461;28;19921;-75
2023/03/26 12:17:45;;;;;;;;;;;;;;;9.99;100.00;100195.31;5032420;28;19943;-74
2023/03/26 12:20:23;;;;;;;;;;;;;;;10.20;100.00;100199.78;5030358;28;19921;-74
2023/03/26 12:22:50;;;;;;;;;;;;;;;10.36;100.00;100193.94;5053148;28;19924;-75
2023/03/26 12:25:17;;;;;;;;;;;;;;;10.57;100.00;100198.44;5046901;28;19916;-75
2023/03/26 12:27:43;;;;;;;;;;;;;;;10.79;100.00;100200.09;5039547;28;20267;-75
2023/03/26 12:30:10;;;;;;;;;;;;;;;11.11;100.00;100190.97;5043908;28;20768;-74
2023/03/26 12:32:43;;;;;;;;;;;;;;;11.24;100.00;100196.91;5048648;28;19920;-74
2023/03/26 12:35:18;;;;;;;;;;;;;;;11.48;100.00;100201.03;5045112;28;19928;-74
2023/03/26 12:37:44;;;;;;;;;;;;;;;11.25;100.00;100200.47;5041622;28;20123;-75
2023/03/26 12:40:33;;;;;;;;;;;;;;;11.58;100.00;100209.09;5051392;28;19931;-75
2023/03/26 12:42:59;;;;;;;;;;;;;;;11.54;100.00;100197.78;5047898;28;20440;-75
2023/03/26 12:45:29;;;;;;;;;;;;;;;10.95;100.00;100203.09;5047287;28;20410;-73